Peruwelz, Belgium
Current Conditions -  °F | °C
As of 5:24 PM on Wednesday 26 Nov 2014 (Local Time) from EBCV Reporting Station
Overcast Overcast  
Wind Chill:   Ceiling: 500
Heat Index:   Visibility: 1mi
Dew Point:   Wind: 5mph
Humidity: 100%   Direction: 180°S
Pressure: 29.85"   Gusts: NA
Location:  50.51°N, 3.59°E
Report Text: EBCV 261624Z AUTO 18004KT 1700 SCT003/// OVC005/// 09/09 Q1011 YLO
Loading
Personal Weather Stations






























Interactive Weather Map New forecast layout! Learn more

10-Day Weather Forecast

Advertisements
Track Severe Weather on mobile